createdAt,value
2023-02-19T00:01:15.852Z,12.20
2023-02-19T00:03:47.420Z,14.32
2023-02-19T00:06:13.869Z,12.70
2023-02-19T00:08:40.245Z,11.75
2023-02-19T00:11:10.989Z,14.10
2023-02-19T00:13:43.328Z,13.00
2023-02-19T00:16:17.773Z,11.65
2023-02-19T00:18:45.288Z,11.57
2023-02-19T00:21:13.040Z,12.05
2023-02-19T00:23:39.813Z,10.60
2023-02-19T00:26:17.651Z,10.02
2023-02-19T00:28:45.772Z,13.18
2023-02-19T00:31:15.066Z,10.40
2023-02-19T00:33:42.032Z,9.85
2023-02-19T00:36:08.432Z,11.88
2023-02-19T00:38:39.442Z,11.52
2023-02-19T00:41:19.009Z,9.50
2023-02-19T00:43:51.566Z,11.73
2023-02-19T00:46:20.520Z,11.15
2023-02-19T00:48:47.446Z,11.02
2023-02-19T00:51:14.475Z,9.57
2023-02-19T00:53:41.025Z,10.95
2023-02-19T00:56:08.622Z,12.43
2023-02-19T00:58:35.028Z,11.18
2023-02-19T01:01:01.386Z,13.65
2023-02-19T01:03:27.740Z,11.70
2023-02-19T01:05:54.561Z,10.63
2023-02-19T01:08:21.267Z,11.00
2023-02-19T01:10:48.030Z,12.15
2023-02-19T01:13:14.768Z,12.82
2023-02-19T01:15:41.119Z,12.45
2023-02-19T01:18:07.927Z,12.65
2023-02-19T01:20:34.374Z,13.23
2023-02-19T01:23:00.965Z,13.50
2023-02-19T01:25:27.342Z,12.68
2023-02-19T01:27:53.671Z,13.05
2023-02-19T01:30:20.014Z,13.63
2023-02-19T01:32:46.409Z,14.15
2023-02-19T01:35:12.730Z,14.27
2023-02-19T01:37:39.069Z,15.43
2023-02-19T01:40:05.959Z,14.00
2023-02-19T01:42:32.344Z,15.98
2023-02-19T01:45:22.249Z,14.30
2023-02-19T01:47:54.797Z,14.00
2023-02-19T01:50:21.858Z,15.13
2023-02-19T01:52:48.329Z,14.43
2023-02-19T01:55:15.242Z,14.15
2023-02-19T01:57:46.388Z,15.73
2023-02-19T02:00:15.231Z,18.85
2023-02-19T02:02:44.892Z,16.35
2023-02-19T02:05:44.070Z,13.02
2023-02-19T02:08:30.747Z,16.10
2023-02-19T02:10:57.764Z,13.68
2023-02-19T02:13:24.266Z,18.92
2023-02-19T02:16:07.150Z,16.67
2023-02-19T02:19:02.159Z,18.42
2023-02-19T02:22:06.590Z,15.30
2023-02-19T02:25:04.130Z,16.55
2023-02-19T02:30:01.647Z,20.80
2023-02-19T02:32:35.644Z,18.33
2023-02-19T02:35:09.777Z,19.02
2023-02-19T02:37:39.344Z,20.92
2023-02-19T02:40:08.114Z,20.67
2023-02-19T02:42:38.131Z,21.63
2023-02-19T02:45:35.483Z,22.65
2023-02-19T02:48:38.302Z,22.00
2023-02-19T02:51:36.218Z,18.25
2023-02-19T02:54:44.458Z,21.83
2023-02-19T02:57:14.739Z,21.95
2023-02-19T02:59:42.647Z,22.23
2023-02-19T03:02:20.073Z,20.15
2023-02-19T03:05:25.660Z,18.95
2023-02-19T03:07:58.154Z,18.15
2023-02-19T03:10:48.305Z,19.98
2023-02-19T03:13:55.754Z,22.40
2023-02-19T03:16:50.802Z,21.42
2023-02-19T03:19:20.387Z,18.90
2023-02-19T03:21:52.166Z,22.45
2023-02-19T03:24:41.490Z,24.20
2023-02-19T03:27:09.757Z,16.83
2023-02-19T03:29:39.320Z,19.45
2023-02-19T03:32:11.316Z,15.05
2023-02-19T03:34:47.054Z,16.08
2023-02-19T03:37:18.789Z,15.40
2023-02-19T03:39:45.513Z,14.68
2023-02-19T03:42:33.515Z,17.15
2023-02-19T03:45:30.130Z,14.20
2023-02-19T03:48:05.577Z,15.43
2023-02-19T03:50:34.845Z,16.15
2023-02-19T03:53:12.438Z,16.75
2023-02-19T03:55:50.025Z,14.10
2023-02-19T03:58:32.440Z,11.25
2023-02-19T04:01:07.326Z,16.08
2023-02-19T04:03:43.697Z,12.30
2023-02-19T04:06:15.062Z,11.10
2023-02-19T04:08:46.141Z,15.05
2023-02-19T04:11:15.488Z,12.25
2023-02-19T04:13:58.553Z,15.00
2023-02-19T04:16:28.822Z,12.77
2023-02-19T04:19:02.099Z,12.93
2023-02-19T04:21:32.101Z,13.05
2023-02-19T04:24:03.058Z,14.32
2023-02-19T04:26:31.170Z,14.65
2023-02-19T04:28:57.535Z,10.95
2023-02-19T04:31:25.717Z,12.70
2023-02-19T04:33:52.165Z,13.65
2023-02-19T04:36:18.554Z,10.27
2023-02-19T04:38:45.308Z,11.68
2023-02-19T04:41:11.979Z,12.70
2023-02-19T04:43:38.554Z,12.02
2023-02-19T04:46:05.099Z,10.02
2023-02-19T04:48:31.465Z,13.52
2023-02-19T04:50:57.828Z,10.30
2023-02-19T04:53:24.254Z,14.70
2023-02-19T04:55:53.148Z,12.70
2023-02-19T04:58:20.313Z,11.85
2023-02-19T05:00:46.689Z,11.40
2023-02-19T05:03:13.078Z,10.07
2023-02-19T05:05:39.433Z,10.35
2023-02-19T05:08:05.827Z,11.02
2023-02-19T05:10:33.524Z,11.35
2023-02-19T05:12:59.846Z,11.70
2023-02-19T05:15:26.220Z,9.13
2023-02-19T05:17:52.535Z,9.07
2023-02-19T05:20:19.019Z,9.75
2023-02-19T05:22:45.365Z,10.52
2023-02-19T05:25:11.737Z,9.55
2023-02-19T05:27:38.117Z,7.38
2023-02-19T05:30:04.753Z,9.75
2023-02-19T05:32:31.122Z,8.75
2023-02-19T05:34:57.545Z,9.32
2023-02-19T05:37:23.924Z,10.63
2023-02-19T05:39:50.294Z,9.35
2023-02-19T05:42:16.760Z,8.70
2023-02-19T05:44:43.345Z,10.77
2023-02-19T05:47:09.746Z,10.43
2023-02-19T05:49:36.257Z,9.52
2023-02-19T05:52:02.701Z,8.73
2023-02-19T05:54:29.715Z,10.82
2023-02-19T05:56:56.521Z,8.57
2023-02-19T05:59:25.313Z,8.45
2023-02-19T06:01:53.221Z,10.27
2023-02-19T06:04:20.440Z,9.82
2023-02-19T06:06:47.630Z,9.80
2023-02-19T06:09:14.065Z,9.68
2023-02-19T06:11:40.634Z,10.68
2023-02-19T06:14:07.157Z,8.25
2023-02-19T06:16:34.484Z,10.57
2023-02-19T06:19:04.918Z,12.35
2023-02-19T06:21:31.381Z,10.43
2023-02-19T06:23:57.789Z,11.43
2023-02-19T06:26:24.996Z,11.48
2023-02-19T06:28:53.264Z,10.32
2023-02-19T06:31:22.781Z,11.57
2023-02-19T06:33:50.555Z,12.48
2023-02-19T06:36:19.221Z,11.45
2023-02-19T06:38:45.611Z,4.63
2023-02-19T06:41:12.948Z,2.90
2023-02-19T06:43:39.889Z,2.70
2023-02-19T06:46:07.974Z,1.95
2023-02-19T06:48:35.319Z,1.95
2023-02-19T06:51:02.099Z,1.67
2023-02-19T06:53:28.685Z,1.73
2023-02-19T06:56:00.757Z,3.20
2023-02-19T06:58:27.317Z,1.98
2023-02-19T07:00:54.103Z,1.67
2023-02-19T07:03:20.626Z,2.20
2023-02-19T07:05:47.208Z,1.83
2023-02-19T07:08:13.659Z,1.80
2023-02-19T07:10:40.025Z,1.80
2023-02-19T07:13:06.438Z,1.60
2023-02-19T07:15:33.461Z,1.90
2023-02-19T07:17:59.805Z,2.67
2023-02-19T07:20:26.293Z,1.83
2023-02-19T07:22:52.804Z,1.70
2023-02-19T07:25:19.133Z,2.05
2023-02-19T07:27:45.440Z,1.73
2023-02-19T07:30:12.121Z,2.00
2023-02-19T07:32:41.585Z,2.13
2023-02-19T07:35:08.412Z,2.08
2023-02-19T07:37:34.763Z,2.17
2023-02-19T07:40:01.240Z,1.80
2023-02-19T07:42:27.596Z,2.67
2023-02-19T07:44:53.922Z,2.42
2023-02-19T07:47:20.448Z,5.50
2023-02-19T07:49:46.766Z,5.50
2023-02-19T07:52:13.166Z,4.95
2023-02-19T07:54:39.604Z,6.20
2023-02-19T07:57:05.911Z,7.78
2023-02-19T07:59:32.283Z,3.83
2023-02-19T08:02:17.213Z,4.03
2023-02-19T08:04:43.589Z,2.95
2023-02-19T08:07:09.965Z,2.60
2023-02-19T08:09:36.370Z,3.00
2023-02-19T08:12:21.337Z,2.75
2023-02-19T08:14:47.678Z,3.60
2023-02-19T08:17:14.083Z,3.03
2023-02-19T08:19:40.590Z,4.40
2023-02-19T08:22:06.954Z,4.13
2023-02-19T08:24:33.847Z,3.47
2023-02-19T08:27:00.188Z,3.40
2023-02-19T08:29:27.187Z,4.90
2023-02-19T08:31:53.582Z,3.53
2023-02-19T08:34:19.952Z,4.30
2023-02-19T08:36:46.292Z,3.97
2023-02-19T08:39:12.653Z,4.53
2023-02-19T08:41:38.974Z,4.47
2023-02-19T08:44:05.285Z,4.70
2023-02-19T08:46:33.485Z,5.38
2023-02-19T08:49:00.692Z,4.65
2023-02-19T08:51:27.237Z,4.05
2023-02-19T08:53:53.571Z,3.45
2023-02-19T08:56:19.900Z,4.68
2023-02-19T08:58:46.281Z,3.58
2023-02-19T09:01:19.069Z,4.72
2023-02-19T09:03:45.688Z,3.25
2023-02-19T09:06:17.643Z,3.42
2023-02-19T09:08:44.117Z,4.35
2023-02-19T09:11:10.860Z,3.00
2023-02-19T09:13:37.436Z,4.03
2023-02-19T09:16:05.192Z,3.45
2023-02-19T09:18:31.778Z,4.20
2023-02-19T09:21:04.461Z,4.95
2023-02-19T09:23:33.333Z,4.28
2023-02-19T09:26:00.901Z,5.07
2023-02-19T09:28:27.967Z,7.25
2023-02-19T09:30:54.616Z,5.45
2023-02-19T09:33:21.037Z,5.53
2023-02-19T09:35:47.644Z,5.30
2023-02-19T09:38:14.022Z,5.88
2023-02-19T09:40:40.550Z,6.97
2023-02-19T09:43:12.050Z,6.35
2023-02-19T09:45:39.878Z,6.15
2023-02-19T09:48:06.966Z,5.50
2023-02-19T09:50:40.949Z,6.25
2023-02-19T09:53:17.544Z,7.78
2023-02-19T09:55:44.871Z,6.65
2023-02-19T09:58:25.577Z,6.57
2023-02-19T10:00:53.498Z,8.15
2023-02-19T10:03:34.177Z,7.35
2023-02-19T10:06:20.312Z,7.85
2023-02-19T10:20:36.994Z,8.43
2023-02-19T10:23:06.132Z,8.38
2023-02-19T10:25:34.510Z,8.63
2023-02-19T10:28:02.346Z,8.80
2023-02-19T10:30:32.109Z,11.50
2023-02-19T10:33:08.854Z,9.25
2023-02-19T10:35:38.083Z,11.13
2023-02-19T10:38:06.751Z,9.95
2023-02-19T10:40:33.669Z,9.10
2023-02-19T10:43:04.738Z,9.70
2023-02-19T10:45:50.277Z,8.35
2023-02-19T10:48:26.427Z,8.73
2023-02-19T10:50:57.998Z,10.15
2023-02-19T10:53:37.997Z,8.27
2023-02-19T10:56:14.644Z,8.13
2023-02-19T10:58:44.903Z,9.82
2023-02-19T11:01:11.745Z,8.75
2023-02-19T11:03:38.405Z,7.90
2023-02-19T11:06:08.934Z,8.05
2023-02-19T11:08:51.416Z,8.32
2023-02-19T11:11:36.660Z,8.07
2023-02-19T11:14:12.792Z,7.80
2023-02-19T11:16:47.805Z,8.20
2023-02-19T11:19:37.874Z,8.30
2023-02-19T11:22:26.412Z,8.27
2023-02-19T11:24:57.283Z,7.80
2023-02-19T11:27:25.233Z,6.13
2023-02-19T11:29:51.730Z,7.70
2023-02-19T11:32:25.233Z,6.03
2023-02-19T11:34:52.680Z,6.32
2023-02-19T11:37:21.382Z,6.43
2023-02-19T11:39:50.164Z,6.05
2023-02-19T11:42:48.644Z,5.18
2023-02-19T11:45:29.715Z,5.57
2023-02-19T11:48:19.306Z,5.13
2023-02-19T11:51:05.482Z,6.68
2023-02-19T11:53:34.474Z,5.53
2023-02-19T11:56:14.316Z,5.57
2023-02-19T11:58:58.017Z,5.18
2023-02-19T12:01:34.605Z,5.43
2023-02-19T12:04:25.980Z,6.43
2023-02-19T12:06:55.399Z,5.88
2023-02-19T12:09:45.857Z,5.57
2023-02-19T12:12:29.379Z,4.97
2023-02-19T12:15:17.088Z,5.80
2023-02-19T12:18:30.570Z,5.13
2023-02-19T12:21:12.028Z,4.80
2023-02-19T12:24:09.861Z,4.30
2023-02-19T12:27:03.837Z,5.20
2023-02-19T12:29:54.498Z,5.10
2023-02-19T12:32:33.084Z,5.95
2023-02-19T12:35:21.575Z,5.40
2023-02-19T12:38:03.035Z,3.67
2023-02-19T12:41:13.038Z,3.75
2023-02-19T12:43:46.905Z,3.33
2023-02-19T12:46:21.427Z,3.33
2023-02-19T12:49:00.551Z,4.50
2023-02-19T12:51:41.880Z,3.05
2023-02-19T12:54:34.040Z,5.93
2023-02-19T12:57:06.439Z,3.53
2023-02-19T12:59:49.508Z,4.20
2023-02-19T13:02:25.392Z,4.18
2023-02-19T13:07:36.945Z,3.72
2023-02-19T13:10:17.537Z,4.07
2023-02-19T13:12:47.172Z,5.50
2023-02-19T13:15:31.454Z,4.63
2023-02-19T13:18:01.408Z,3.85
2023-02-19T13:20:42.255Z,3.97
2023-02-19T13:23:40.388Z,3.30
2023-02-19T13:26:29.483Z,4.03
2023-02-19T13:29:13.548Z,4.13
2023-02-19T13:32:04.276Z,4.68
2023-02-19T13:35:04.780Z,3.13
2023-02-19T13:37:35.150Z,6.65
2023-02-19T13:40:06.802Z,3.85
2023-02-19T13:42:35.814Z,4.45
2023-02-19T13:45:05.188Z,3.83
2023-02-19T13:47:58.573Z,3.40
2023-02-19T13:50:31.876Z,3.28
2023-02-19T13:53:00.096Z,3.13
2023-02-19T13:55:50.748Z,3.78
2023-02-19T13:58:36.260Z,2.63
2023-02-19T14:01:07.809Z,3.73
2023-02-19T14:03:37.245Z,4.60
2023-02-19T14:06:06.365Z,5.07
2023-02-19T14:08:58.117Z,5.60
2023-02-19T14:11:50.933Z,4.82
2023-02-19T14:14:30.555Z,3.95
2023-02-19T14:17:04.503Z,3.45
2023-02-19T14:20:09.294Z,4.28
2023-02-19T14:22:47.778Z,4.18
2023-02-19T14:25:29.590Z,5.10
2023-02-19T14:28:04.995Z,5.43
2023-02-19T14:30:33.957Z,5.22
2023-02-19T14:33:10.308Z,3.53
2023-02-19T14:35:43.121Z,6.60
2023-02-19T14:38:20.074Z,3.15
2023-02-19T14:40:48.386Z,3.20
2023-02-19T14:43:18.626Z,4.07
2023-02-19T14:45:51.607Z,4.03
2023-02-19T14:48:23.613Z,3.80
2023-02-19T14:50:55.319Z,4.57
2023-02-19T14:53:24.482Z,6.72
2023-02-19T14:55:52.652Z,5.60
2023-02-19T14:58:26.028Z,6.82
2023-02-19T15:00:52.448Z,9.13
2023-02-19T15:03:29.736Z,6.85
2023-02-19T15:06:03.817Z,5.32
2023-02-19T15:08:39.829Z,4.97
2023-02-19T15:11:20.276Z,5.05
2023-02-19T15:13:51.131Z,4.22
2023-02-19T15:16:32.750Z,3.03
2023-02-19T15:19:00.186Z,3.17
2023-02-19T15:21:34.134Z,3.25
2023-02-19T15:24:04.019Z,3.30
2023-02-19T15:26:41.225Z,3.67
2023-02-19T15:29:23.015Z,3.05
2023-02-19T15:31:56.999Z,3.00
2023-02-19T15:34:29.147Z,3.08
2023-02-19T15:36:59.816Z,3.28
2023-02-19T15:39:48.828Z,3.08
2023-02-19T15:42:19.797Z,3.00
2023-02-19T15:44:56.944Z,3.70
2023-02-19T15:47:33.345Z,4.20
2023-02-19T15:50:15.069Z,3.97
2023-02-19T15:52:59.120Z,4.22
2023-02-19T15:55:29.592Z,5.22
2023-02-19T15:58:20.389Z,3.28
2023-02-19T16:00:54.096Z,4.53
2023-02-19T16:03:23.196Z,4.22
2023-02-19T16:06:03.245Z,3.85
2023-02-19T16:08:34.794Z,4.07
2023-02-19T16:11:04.568Z,3.05
2023-02-19T16:13:33.438Z,4.22
2023-02-19T16:16:09.094Z,5.43
2023-02-19T16:18:35.889Z,3.40
2023-02-19T16:21:09.189Z,3.53
2023-02-19T16:23:41.133Z,3.97
2023-02-19T16:26:07.681Z,3.13
2023-02-19T16:28:38.349Z,3.55
2023-02-19T16:31:11.026Z,3.70
2023-02-19T16:33:40.470Z,3.58
2023-02-19T16:36:16.132Z,4.13
2023-02-19T16:39:07.782Z,3.40
2023-02-19T16:41:54.243Z,4.72
2023-02-19T16:46:57.792Z,9.02
2023-02-19T16:49:24.714Z,8.45
2023-02-19T16:51:51.526Z,5.65
2023-02-19T16:54:17.860Z,6.32
2023-02-19T16:56:44.220Z,5.95
2023-02-19T16:59:10.572Z,3.92
2023-02-19T17:01:37.883Z,6.40
2023-02-19T17:04:08.225Z,4.95
2023-02-19T17:06:34.962Z,4.50
2023-02-19T17:09:01.344Z,4.20
2023-02-19T17:11:27.685Z,5.65
2023-02-19T17:13:54.093Z,5.75
2023-02-19T17:16:24.078Z,6.28
2023-02-19T17:18:51.229Z,4.13
2023-02-19T17:21:22.303Z,4.07
2023-02-19T17:23:49.804Z,3.75
2023-02-19T17:26:19.166Z,3.88
2023-02-19T17:28:46.053Z,5.45
2023-02-19T17:31:14.457Z,3.65
2023-02-19T17:33:42.569Z,3.03
2023-02-19T17:36:18.089Z,4.38
2023-02-19T17:38:44.482Z,5.80
2023-02-19T17:41:11.086Z,6.13
2023-02-19T17:43:37.784Z,6.05
2023-02-19T17:46:04.444Z,24.77
2023-02-19T17:48:31.056Z,11.77
2023-02-19T17:50:57.408Z,8.38
2023-02-19T17:53:23.721Z,6.45
2023-02-19T17:55:50.081Z,5.10
2023-02-19T17:58:16.459Z,4.00
2023-02-19T18:00:42.806Z,4.75
2023-02-19T18:03:10.388Z,4.07
2023-02-19T18:05:36.716Z,4.50
2023-02-19T18:08:03.175Z,11.85
2023-02-19T18:10:30.435Z,5.65
2023-02-19T18:12:56.970Z,4.80
2023-02-19T18:15:26.765Z,5.43
2023-02-19T18:17:54.079Z,5.57
2023-02-19T18:20:23.310Z,5.63
2023-02-19T18:22:50.599Z,6.70
2023-02-19T18:25:18.094Z,5.90
2023-02-19T18:27:44.629Z,6.15
2023-02-19T18:30:12.688Z,7.65
2023-02-19T18:32:39.060Z,6.72
2023-02-19T18:35:05.798Z,6.78
2023-02-19T18:37:33.705Z,7.72
2023-02-19T18:40:00.915Z,8.32
2023-02-19T18:42:27.826Z,12.23
2023-02-19T18:44:54.945Z,8.80
2023-02-19T18:47:22.373Z,7.75
2023-02-19T18:49:50.279Z,7.72
2023-02-19T18:52:21.208Z,8.27
2023-02-19T18:54:52.449Z,11.27
2023-02-19T18:57:21.322Z,8.00
2023-02-19T18:59:48.135Z,9.13
2023-02-19T19:02:16.657Z,10.93
2023-02-19T19:04:43.209Z,10.25
2023-02-19T19:07:10.156Z,9.23
2023-02-19T19:09:36.818Z,11.18
2023-02-19T19:12:05.316Z,10.85
2023-02-19T19:14:31.780Z,9.18
2023-02-19T19:16:58.259Z,8.27
2023-02-19T19:19:24.596Z,8.60
2023-02-19T19:21:53.434Z,6.82
2023-02-19T19:24:20.906Z,8.50
2023-02-19T19:26:48.985Z,8.20
2023-02-19T19:29:18.022Z,9.35
2023-02-19T19:31:45.293Z,8.00
2023-02-19T19:34:12.525Z,9.35
2023-02-19T19:36:39.213Z,8.52
2023-02-19T19:39:06.650Z,6.78
2023-02-19T19:41:33.481Z,7.22
2023-02-19T19:44:04.285Z,6.18
2023-02-19T19:46:30.823Z,6.78
2023-02-19T19:48:57.205Z,6.18
2023-02-19T19:51:23.797Z,6.43
2023-02-19T19:53:50.557Z,7.53
2023-02-19T19:56:17.610Z,9.07
2023-02-19T19:58:44.037Z,6.55
2023-02-19T20:01:10.759Z,7.22
2023-02-19T20:03:38.427Z,8.73
2023-02-19T20:06:05.161Z,7.28
2023-02-19T20:08:31.530Z,8.82
2023-02-19T20:10:59.043Z,7.45
2023-02-19T20:13:28.665Z,6.07
2023-02-19T20:15:55.283Z,6.38
2023-02-19T20:18:21.771Z,6.55
2023-02-19T20:20:48.131Z,5.97
2023-02-19T20:23:14.495Z,4.88
2023-02-19T20:25:40.974Z,7.53
2023-02-19T20:28:07.965Z,4.05
2023-02-19T20:30:34.956Z,4.63
2023-02-19T20:33:01.560Z,5.80
2023-02-19T20:35:31.845Z,4.13
2023-02-19T20:37:58.191Z,3.95
2023-02-19T20:40:27.337Z,5.22
2023-02-19T20:42:54.453Z,4.18
2023-02-19T20:45:21.289Z,4.38
2023-02-19T20:47:48.920Z,4.40
2023-02-19T20:50:18.486Z,4.55
2023-02-19T20:52:45.910Z,3.05
2023-02-19T20:55:12.939Z,4.18
2023-02-19T20:57:39.284Z,2.92
2023-02-19T21:00:06.234Z,3.28
2023-02-19T21:02:32.635Z,4.28
2023-02-19T21:04:59.647Z,4.22
2023-02-19T21:07:26.899Z,3.53
2023-02-19T21:09:53.637Z,4.20
2023-02-19T21:12:22.006Z,4.50
2023-02-19T21:14:48.688Z,3.97
2023-02-19T21:17:15.314Z,3.78
2023-02-19T21:19:41.856Z,3.97
2023-02-19T21:22:08.354Z,4.95
2023-02-19T21:24:34.909Z,3.95
2023-02-19T21:27:01.543Z,4.03
2023-02-19T21:29:27.944Z,3.67
2023-02-19T21:31:56.407Z,3.13
2023-02-19T21:34:26.150Z,3.28
2023-02-19T21:36:52.851Z,3.33
2023-02-19T21:39:21.598Z,3.67
2023-02-19T21:41:48.340Z,3.22
2023-02-19T21:44:14.767Z,2.78
2023-02-19T21:46:41.429Z,3.38
2023-02-19T21:49:08.023Z,3.78
2023-02-19T21:51:37.192Z,3.05
2023-02-19T21:54:05.233Z,3.53
2023-02-19T21:56:35.115Z,3.47
2023-02-19T21:59:02.883Z,4.30
2023-02-19T22:01:34.411Z,5.30
2023-02-19T22:04:00.875Z,3.45
2023-02-19T22:06:29.570Z,3.83
2023-02-19T22:08:56.454Z,4.00
2023-02-19T22:11:23.348Z,4.60
2023-02-19T22:13:50.064Z,4.78
2023-02-19T22:16:17.465Z,4.80
2023-02-19T22:18:51.520Z,5.50
2023-02-19T22:21:18.646Z,7.88
2023-02-19T22:23:46.546Z,6.70
2023-02-19T22:26:26.848Z,5.82
2023-02-19T22:28:54.035Z,6.90
2023-02-19T22:31:23.400Z,6.13
2023-02-19T22:33:50.367Z,6.50
2023-02-19T22:36:23.275Z,8.82
2023-02-19T22:38:50.136Z,7.07
2023-02-19T22:41:17.858Z,6.45
2023-02-19T22:43:44.838Z,6.35
2023-02-19T22:46:19.652Z,8.52
2023-02-19T22:48:45.993Z,6.80
2023-02-19T22:51:14.254Z,7.07
2023-02-19T22:53:57.600Z,6.90
2023-02-19T22:56:26.919Z,6.32
2023-02-19T22:58:54.654Z,6.88
2023-02-19T23:01:21.678Z,7.22
2023-02-19T23:03:53.808Z,6.65
2023-02-19T23:06:34.502Z,5.45
2023-02-19T23:09:10.550Z,5.18
2023-02-19T23:11:38.986Z,5.00
2023-02-19T23:14:06.804Z,4.75
2023-02-19T23:16:35.865Z,4.57
2023-02-19T23:19:04.813Z,5.03
2023-02-19T23:21:31.755Z,6.75
2023-02-19T23:23:59.012Z,6.70
2023-02-19T23:26:25.792Z,5.18
2023-02-19T23:28:52.178Z,6.28
2023-02-19T23:31:18.932Z,5.85
2023-02-19T23:33:45.455Z,5.85
2023-02-19T23:36:13.852Z,5.50
2023-02-19T23:38:40.621Z,6.75
2023-02-19T23:41:11.826Z,5.38
2023-02-19T23:43:38.887Z,5.82
2023-02-19T23:46:05.857Z,5.78
2023-02-19T23:48:32.946Z,6.32
2023-02-19T23:50:59.336Z,5.68
2023-02-19T23:53:25.701Z,5.80
2023-02-19T23:55:52.058Z,5.50
2023-02-19T23:58:18.878Z,7.18
